Terminal Aerodrome Forecast
Issued by NWS Cleveland, OH

Home | Current Version | Previous Version | Text Only | Print | Product List | Glossary On
Versions: 1 2 3 4 5 6 7 8 9 10 11 12 13 14 15 16 17 18 19 20
711
FTUS41 KCLE 132341
TAFYNG
TAF
KYNG 132341Z 1400/1424 30011KT 1SM -SHSN BKN035
      TEMPO 1400/1402 2SM -SN BKN015 OVC020
     FM140200 30010KT P6SM VCSH BKN035
      TEMPO 1402/1404 3SM -SHSN OVC030
     FM140800 28005KT P6SM BKN035
     FM141700 14004KT P6SM BKN035 OVC120=

USA.gov is the U.S. government's official web portal to all federal, state and local government web resources and services.